Terminal Aerodrome Forecast
Issued by NWS

Home | Current Version | Previous Version | Graphics & Text | Print | Product List | Glossary On
Versions: 1 2 3 4 5 6 7 8 9 10 11 12 13 14 15 16 17 18 19 20 21 22 23 24 25 26 27 28 29 30 31
000
FTUS43 KLOT 262100 AAB
TAFMDW
TAF AMD
KMDW 262149Z 2622/2718 09004KT P6SM FEW050 SCT250
     FM270000 06006KT P6SM FEW150 BKN250
     FM270700 03006KT P6SM BKN070
     FM271500 05010KT P6SM BKN080=

USA.gov is the U.S. government's official web portal to all federal, state and local government web resources and services.